sensor_id;sensor_type;location;lat;lon;timestamp;pressure;altitude;pressure_sealevel;temperature;humidity
75627;BME280;67372;49.404;11.034;2023-02-15T00:00:26;99670.41;;;0.39;86.70
75627;BME280;67372;49.404;11.034;2023-02-15T00:02:52;99668.03;;;0.47;86.50
75627;BME280;67372;49.404;11.034;2023-02-15T00:05:19;99662.44;;;0.52;86.55
75627;BME280;67372;49.404;11.034;2023-02-15T00:07:45;99655.41;;;0.52;85.66
75627;BME280;67372;49.404;11.034;2023-02-15T00:10:11;99654.09;;;0.58;85.56
75627;BME280;67372;49.404;11.034;2023-02-15T00:12:38;99652.91;;;0.62;85.06
75627;BME280;67372;49.404;11.034;2023-02-15T00:15:04;99647.53;;;0.52;85.21
75627;BME280;67372;49.404;11.034;2023-02-15T00:17:30;99653.13;;;0.48;85.36
75627;BME280;67372;49.404;11.034;2023-02-15T00:19:57;99649.88;;;0.44;84.98
75627;BME280;67372;49.404;11.034;2023-02-15T00:22:23;99647.63;;;0.40;85.61
75627;BME280;67372;49.404;11.034;2023-02-15T00:24:50;99647.38;;;0.43;85.23
75627;BME280;67372;49.404;11.034;2023-02-15T00:27:16;99644.75;;;0.43;85.05
75627;BME280;67372;49.404;11.034;2023-02-15T00:29:42;99639.25;;;0.35;85.48
75627;BME280;67372;49.404;11.034;2023-02-15T00:32:09;99638.31;;;0.36;85.40
75627;BME280;67372;49.404;11.034;2023-02-15T00:34:35;99636.75;;;0.33;85.22
75627;BME280;67372;49.404;11.034;2023-02-15T00:37:01;99648.31;;;0.30;85.50
75627;BME280;67372;49.404;11.034;2023-02-15T00:39:28;99641.50;;;0.28;85.15
75627;BME280;67372;49.404;11.034;2023-02-15T00:41:54;99642.47;;;0.27;85.13
75627;BME280;67372;49.404;11.034;2023-02-15T00:44:20;99646.84;;;0.15;85.96
75627;BME280;67372;49.404;11.034;2023-02-15T00:46:47;99645.28;;;0.13;85.53
75627;BME280;67372;49.404;11.034;2023-02-15T00:49:13;99646.00;;;0.15;85.72
75627;BME280;67372;49.404;11.034;2023-02-15T00:51:40;99636.44;;;0.14;85.75
75627;BME280;67372;49.404;11.034;2023-02-15T00:54:06;99638.13;;;0.15;86.09
75627;BME280;67372;49.404;11.034;2023-02-15T00:56:33;99637.28;;;0.14;85.56
75627;BME280;67372;49.404;11.034;2023-02-15T00:58:59;99635.50;;;0.15;86.04
75627;BME280;67372;49.404;11.034;2023-02-15T01:01:26;99639.19;;;0.12;86.21
75627;BME280;67372;49.404;11.034;2023-02-15T01:03:52;99636.72;;;0.22;85.13
75627;BME280;67372;49.404;11.034;2023-02-15T01:06:18;99627.56;;;0.27;84.69
75627;BME280;67372;49.404;11.034;2023-02-15T01:08:45;99631.63;;;0.32;84.91
75627;BME280;67372;49.404;11.034;2023-02-15T01:11:14;99626.03;;;0.36;84.85
75627;BME280;67372;49.404;11.034;2023-02-15T01:13:41;99632.22;;;0.35;85.02
75627;BME280;67372;49.404;11.034;2023-02-15T01:16:08;99625.78;;;0.39;85.37
75627;BME280;67372;49.404;11.034;2023-02-15T01:18:35;99627.22;;;0.43;84.26
75627;BME280;67372;49.404;11.034;2023-02-15T01:21:12;99621.72;;;0.46;84.71
75627;BME280;67372;49.404;11.034;2023-02-15T01:23:40;99622.69;;;0.45;84.62
75627;BME280;67372;49.404;11.034;2023-02-15T01:26:06;99618.63;;;0.41;84.13
75627;BME280;67372;49.404;11.034;2023-02-15T01:28:33;99619.09;;;0.35;83.92
75627;BME280;67372;49.404;11.034;2023-02-15T01:31:07;99615.28;;;0.28;84.44
75627;BME280;67372;49.404;11.034;2023-02-15T01:33:35;99611.81;;;0.27;84.61
75627;BME280;67372;49.404;11.034;2023-02-15T01:36:02;99611.41;;;0.21;84.62
75627;BME280;67372;49.404;11.034;2023-02-15T01:38:29;99604.75;;;0.17;84.20
75627;BME280;67372;49.404;11.034;2023-02-15T01:40:56;99607.84;;;0.11;84.86
75627;BME280;67372;49.404;11.034;2023-02-15T01:43:39;99604.25;;;0.01;85.06
75627;BME280;67372;49.404;11.034;2023-02-15T01:46:07;99596.25;;;0.02;84.53
75627;BME280;67372;49.404;11.034;2023-02-15T01:48:35;99594.72;;;0.11;84.55
75627;BME280;67372;49.404;11.034;2023-02-15T01:51:07;99597.09;;;0.14;84.57
75627;BME280;67372;49.404;11.034;2023-02-15T01:53:42;99584.72;;;0.16;84.22
75627;BME280;67372;49.404;11.034;2023-02-15T01:56:15;99581.25;;;0.15;84.11
75627;BME280;67372;49.404;11.034;2023-02-15T01:58:43;99583.13;;;0.02;84.21
75627;BME280;67372;49.404;11.034;2023-02-15T02:01:10;99581.00;;;0.07;84.42
75627;BME280;67372;49.404;11.034;2023-02-15T02:06:19;99574.56;;;0.00;84.58
75627;BME280;67372;49.404;11.034;2023-02-15T02:08:47;99568.91;;;-0.07;84.88
75627;BME280;67372;49.404;11.034;2023-02-15T02:11:14;99578.56;;;-0.07;84.95
75627;BME280;67372;49.404;11.034;2023-02-15T02:13:42;99583.31;;;-0.12;84.57
75627;BME280;67372;49.404;11.034;2023-02-15T02:17:01;99582.50;;;-0.13;84.58
75627;BME280;67372;49.404;11.034;2023-02-15T02:33:23;99574.88;;;-0.40;85.43
75627;BME280;67372;49.404;11.034;2023-02-15T02:44:17;99551.75;;;-0.46;85.63
75627;BME280;67372;49.404;11.034;2023-02-15T02:46:52;99554.03;;;-0.41;85.34
75627;BME280;67372;49.404;11.034;2023-02-15T02:49:37;99551.06;;;-0.37;85.45
75627;BME280;67372;49.404;11.034;2023-02-15T02:52:31;99554.88;;;-0.41;85.13
75627;BME280;67372;49.404;11.034;2023-02-15T02:54:54;99552.72;;;-0.47;85.54
75627;BME280;67372;49.404;11.034;2023-02-15T02:57:23;99547.56;;;-0.48;85.80
75627;BME280;67372;49.404;11.034;2023-02-15T02:59:51;99543.44;;;-0.40;84.83
75627;BME280;67372;49.404;11.034;2023-02-15T03:02:24;99550.72;;;-0.32;85.03
75627;BME280;67372;49.404;11.034;2023-02-15T03:04:58;99556.44;;;-0.27;84.84
75627;BME280;67372;49.404;11.034;2023-02-15T03:07:28;99552.75;;;-0.24;84.91
75627;BME280;67372;49.404;11.034;2023-02-15T03:09:57;99554.53;;;-0.36;84.46
75627;BME280;67372;49.404;11.034;2023-02-15T03:12:33;99548.06;;;-0.43;85.07
75627;BME280;67372;49.404;11.034;2023-02-15T03:15:08;99545.56;;;-0.45;85.27
75627;BME280;67372;49.404;11.034;2023-02-15T03:17:40;99547.84;;;-0.40;85.17
75627;BME280;67372;49.404;11.034;2023-02-15T03:20:19;99544.88;;;-0.36;84.73
75627;BME280;67372;49.404;11.034;2023-02-15T03:22:51;99545.59;;;-0.34;84.91
75627;BME280;67372;49.404;11.034;2023-02-15T03:25:29;99541.91;;;-0.31;84.09
75627;BME280;67372;49.404;11.034;2023-02-15T03:28:07;99545.25;;;-0.29;84.03
75627;BME280;67372;49.404;11.034;2023-02-15T03:30:37;99546.19;;;-0.30;84.36
75627;BME280;67372;49.404;11.034;2023-02-15T03:33:06;99547.38;;;-0.34;84.39
75627;BME280;67372;49.404;11.034;2023-02-15T03:35:40;99559.75;;;-0.36;84.72
75627;BME280;67372;49.404;11.034;2023-02-15T03:38:13;99552.25;;;-0.41;84.49
75627;BME280;67372;49.404;11.034;2023-02-15T03:40:44;99549.63;;;-0.41;85.03
75627;BME280;67372;49.404;11.034;2023-02-15T03:43:24;99557.50;;;-0.41;84.43
75627;BME280;67372;49.404;11.034;2023-02-15T03:45:57;99551.31;;;-0.40;84.40
75627;BME280;67372;49.404;11.034;2023-02-15T03:48:29;99544.28;;;-0.39;84.04
75627;BME280;67372;49.404;11.034;2023-02-15T03:51:01;99547.84;;;-0.40;84.39
75627;BME280;67372;49.404;11.034;2023-02-15T03:53:29;99546.63;;;-0.47;84.53
75627;BME280;67372;49.404;11.034;2023-02-15T03:55:56;99544.22;;;-0.50;84.34
75627;BME280;67372;49.404;11.034;2023-02-15T03:58:22;99546.84;;;-0.50;84.49
75627;BME280;67372;49.404;11.034;2023-02-15T04:00:55;99560.47;;;-0.45;84.41
75627;BME280;67372;49.404;11.034;2023-02-15T04:03:31;99557.53;;;-0.53;84.93
75627;BME280;67372;49.404;11.034;2023-02-15T04:06:01;99560.78;;;-0.50;84.15
75627;BME280;67372;49.404;11.034;2023-02-15T04:08:28;99557.50;;;-0.41;83.90
75627;BME280;67372;49.404;11.034;2023-02-15T04:10:55;99562.28;;;-0.35;84.51
75627;BME280;67372;49.404;11.034;2023-02-15T04:13:24;99550.72;;;-0.32;84.30
75627;BME280;67372;49.404;11.034;2023-02-15T04:15:51;99554.28;;;-0.33;84.22
75627;BME280;67372;49.404;11.034;2023-02-15T04:18:19;99556.91;;;-0.33;83.83
75627;BME280;67372;49.404;11.034;2023-02-15T04:20:46;99558.94;;;-0.37;83.88
75627;BME280;67372;49.404;11.034;2023-02-15T04:23:12;99562.00;;;-0.43;84.30
75627;BME280;67372;49.404;11.034;2023-02-15T04:25:39;99565.69;;;-0.45;84.35
75627;BME280;67372;49.404;11.034;2023-02-15T04:28:05;99561.41;;;-0.46;83.84
75627;BME280;67372;49.404;11.034;2023-02-15T04:30:31;99566.41;;;-0.43;84.14
75627;BME280;67372;49.404;11.034;2023-02-15T04:32:58;99573.44;;;-0.44;83.92
75627;BME280;67372;49.404;11.034;2023-02-15T04:35:24;99572.38;;;-0.41;83.89
75627;BME280;67372;49.404;11.034;2023-02-15T04:37:50;99567.78;;;-0.50;84.12
75627;BME280;67372;49.404;11.034;2023-02-15T04:40:17;99575.66;;;-0.50;83.56
75627;BME280;67372;49.404;11.034;2023-02-15T04:42:47;99564.78;;;-0.57;84.21
75627;BME280;67372;49.404;11.034;2023-02-15T04:45:13;99570.03;;;-0.57;84.27
75627;BME280;67372;49.404;11.034;2023-02-15T04:47:40;99563.00;;;-0.56;84.33
75627;BME280;67372;49.404;11.034;2023-02-15T04:50:07;99566.19;;;-0.64;84.57
75627;BME280;67372;49.404;11.034;2023-02-15T04:52:33;99559.63;;;-0.70;84.30
75627;BME280;67372;49.404;11.034;2023-02-15T04:55:00;99556.38;;;-0.73;84.37
75627;BME280;67372;49.404;11.034;2023-02-15T04:57:26;99559.44;;;-0.79;85.42
75627;BME280;67372;49.404;11.034;2023-02-15T04:59:52;99559.94;;;-0.74;85.36
75627;BME280;67372;49.404;11.034;2023-02-15T05:02:19;99560.78;;;-0.74;85.16
75627;BME280;67372;49.404;11.034;2023-02-15T05:04:45;99559.94;;;-0.74;84.31
75627;BME280;67372;49.404;11.034;2023-02-15T05:07:12;99551.47;;;-0.78;84.54
75627;BME280;67372;49.404;11.034;2023-02-15T05:09:38;99546.22;;;-0.78;85.00
75627;BME280;67372;49.404;11.034;2023-02-15T05:12:04;99543.38;;;-0.75;84.47
75627;BME280;67372;49.404;11.034;2023-02-15T05:14:31;99545.25;;;-0.88;85.47
75627;BME280;67372;49.404;11.034;2023-02-15T05:16:57;99540.75;;;-0.99;85.72
75627;BME280;67372;49.404;11.034;2023-02-15T05:19:23;99539.38;;;-0.91;85.06
75627;BME280;67372;49.404;11.034;2023-02-15T05:21:50;99539.88;;;-0.86;85.24
75627;BME280;67372;49.404;11.034;2023-02-15T05:24:16;99535.88;;;-0.79;84.33
75627;BME280;67372;49.404;11.034;2023-02-15T05:26:43;99537.53;;;-0.78;84.43
75627;BME280;67372;49.404;11.034;2023-02-15T05:29:10;99530.63;;;-0.79;84.67
75627;BME280;67372;49.404;11.034;2023-02-15T05:31:36;99527.41;;;-0.83;84.57
75627;BME280;67372;49.404;11.034;2023-02-15T05:34:03;99523.00;;;-0.82;84.45
75627;BME280;67372;49.404;11.034;2023-02-15T05:36:29;99528.13;;;-0.81;84.46
75627;BME280;67372;49.404;11.034;2023-02-15T05:38:56;99532.41;;;-0.80;84.25
75627;BME280;67372;49.404;11.034;2023-02-15T05:41:22;99535.75;;;-0.78;84.62
75627;BME280;67372;49.404;11.034;2023-02-15T05:43:48;99544.00;;;-0.71;84.31
75627;BME280;67372;49.404;11.034;2023-02-15T05:46:14;99536.88;;;-0.69;84.12
75627;BME280;67372;49.404;11.034;2023-02-15T05:48:41;99542.28;;;-0.59;84.01
75627;BME280;67372;49.404;11.034;2023-02-15T05:51:12;99545.16;;;-0.51;83.43
75627;BME280;67372;49.404;11.034;2023-02-15T05:53:39;99535.50;;;-0.51;83.77
75627;BME280;67372;49.404;11.034;2023-02-15T05:56:08;99530.63;;;-0.55;83.66
75627;BME280;67372;49.404;11.034;2023-02-15T05:58:37;99535.13;;;-0.57;83.53
75627;BME280;67372;49.404;11.034;2023-02-15T06:01:12;99529.66;;;-0.54;82.99
75627;BME280;67372;49.404;11.034;2023-02-15T06:03:39;99525.59;;;-0.58;83.71
75627;BME280;67372;49.404;11.034;2023-02-15T06:06:06;99523.94;;;-0.59;83.43
75627;BME280;67372;49.404;11.034;2023-02-15T06:08:34;99525.59;;;-0.58;83.65
75627;BME280;67372;49.404;11.034;2023-02-15T06:11:01;99524.41;;;-0.66;83.77
75627;BME280;67372;49.404;11.034;2023-02-15T06:13:27;99519.81;;;-0.75;83.93
75627;BME280;67372;49.404;11.034;2023-02-15T06:15:54;99515.00;;;-0.92;84.89
75627;BME280;67372;49.404;11.034;2023-02-15T06:18:20;99511.94;;;-0.99;85.14
75627;BME280;67372;49.404;11.034;2023-02-15T06:20:47;99517.63;;;-1.05;84.88
75627;BME280;67372;49.404;11.034;2023-02-15T06:23:14;99514.63;;;-1.11;85.46
75627;BME280;67372;49.404;11.034;2023-02-15T06:25:41;99533.56;;;-1.08;85.47
75627;BME280;67372;49.404;11.034;2023-02-15T06:28:07;99525.72;;;-1.08;85.74
75627;BME280;67372;49.404;11.034;2023-02-15T06:30:34;99526.78;;;-1.10;85.94
75627;BME280;67372;49.404;11.034;2023-02-15T06:33:00;99527.38;;;-1.07;85.65
75627;BME280;67372;49.404;11.034;2023-02-15T06:35:26;99536.47;;;-1.00;85.02
75627;BME280;67372;49.404;11.034;2023-02-15T06:37:53;99542.97;;;-0.93;84.32
75627;BME280;67372;49.404;11.034;2023-02-15T06:40:19;99542.72;;;-0.89;84.93
75627;BME280;67372;49.404;11.034;2023-02-15T06:42:46;99541.56;;;-0.85;84.40
75627;BME280;67372;49.404;11.034;2023-02-15T06:45:12;99536.81;;;-0.80;84.39
75627;BME280;67372;49.404;11.034;2023-02-15T06:47:39;99536.81;;;-0.80;84.11
75627;BME280;67372;49.404;11.034;2023-02-15T06:50:06;99538.03;;;-0.73;84.44
75627;BME280;67372;49.404;11.034;2023-02-15T06:52:33;99547.63;;;-0.61;84.25
75627;BME280;67372;49.404;11.034;2023-02-15T06:55:00;99546.34;;;-0.55;85.07
75627;BME280;67372;49.404;11.034;2023-02-15T06:57:26;99547.34;;;-0.45;84.15
75627;BME280;67372;49.404;11.034;2023-02-15T06:59:52;99547.84;;;-0.40;83.76
75627;BME280;67372;49.404;11.034;2023-02-15T07:02:19;99541.53;;;-0.38;82.58
75627;BME280;67372;49.404;11.034;2023-02-15T07:04:45;99545.94;;;-0.38;82.35
75627;BME280;67372;49.404;11.034;2023-02-15T07:07:12;99545.09;;;-0.39;82.62
75627;BME280;67372;49.404;11.034;2023-02-15T07:09:39;99543.56;;;-0.41;82.26
75627;BME280;67372;49.404;11.034;2023-02-15T07:12:06;99544.63;;;-0.44;82.85
75627;BME280;67372;49.404;11.034;2023-02-15T07:14:32;99545.94;;;-0.38;82.52
75627;BME280;67372;49.404;11.034;2023-02-15T07:16:59;99541.75;;;-0.41;82.09
75627;BME280;67372;49.404;11.034;2023-02-15T07:19:25;99538.44;;;-0.43;82.36
75627;BME280;67372;49.404;11.034;2023-02-15T07:21:51;99540.63;;;-0.49;82.13
75627;BME280;67372;49.404;11.034;2023-02-15T07:24:18;99541.88;;;-0.42;82.65
75627;BME280;67372;49.404;11.034;2023-02-15T07:26:44;99537.97;;;-0.37;82.19
75627;BME280;67372;49.404;11.034;2023-02-15T07:29:10;99540.00;;;-0.29;82.41
75627;BME280;67372;49.404;11.034;2023-02-15T07:31:37;99535.41;;;-0.14;81.70
75627;BME280;67372;49.404;11.034;2023-02-15T07:34:05;99537.31;;;-0.05;81.48
75627;BME280;67372;49.404;11.034;2023-02-15T07:36:32;99539.00;;;-0.04;80.00
75627;BME280;67372;49.404;11.034;2023-02-15T07:38:58;99539.72;;;-0.02;80.42
75627;BME280;67372;49.404;11.034;2023-02-15T07:41:24;99539.59;;;-0.01;80.08
75627;BME280;67372;49.404;11.034;2023-02-15T07:43:50;99536.38;;;-0.04;79.97
75627;BME280;67372;49.404;11.034;2023-02-15T07:46:17;99533.03;;;-0.06;80.40
75627;BME280;67372;49.404;11.034;2023-02-15T07:48:44;99534.00;;;-0.07;80.61
75627;BME280;67372;49.404;11.034;2023-02-15T07:51:11;99538.16;;;-0.05;80.22
75627;BME280;67372;49.404;11.034;2023-02-15T07:53:38;99533.19;;;0.04;80.44
75627;BME280;67372;49.404;11.034;2023-02-15T07:56:08;99532.69;;;-0.02;80.37
75627;BME280;67372;49.404;11.034;2023-02-15T07:58:35;99529.34;;;-0.04;80.52
75627;BME280;67372;49.404;11.034;2023-02-15T08:01:02;99529.09;;;-0.01;79.99
75627;BME280;67372;49.404;11.034;2023-02-15T08:03:28;99527.91;;;-0.08;80.57
75627;BME280;67372;49.404;11.034;2023-02-15T08:05:58;99530.16;;;-0.14;80.01
75627;BME280;67372;49.404;11.034;2023-02-15T08:08:26;99528.38;;;-0.14;80.07
75627;BME280;67372;49.404;11.034;2023-02-15T08:10:53;99529.09;;;-0.12;80.73
75627;BME280;67372;49.404;11.034;2023-02-15T08:13:19;99532.78;;;-0.14;80.62
75627;BME280;67372;49.404;11.034;2023-02-15T08:15:50;99528.72;;;-0.18;80.58
75627;BME280;67372;49.404;11.034;2023-02-15T08:18:16;99527.06;;;-0.19;80.58
75627;BME280;67372;49.404;11.034;2023-02-15T08:20:48;99520.88;;;-0.07;80.01
75627;BME280;67372;49.404;11.034;2023-02-15T08:23:15;99524.50;;;0.03;80.53
75627;BME280;67372;49.404;11.034;2023-02-15T08:25:41;99532.13;;;0.06;79.71
75627;BME280;67372;49.404;11.034;2023-02-15T08:28:08;99527.13;;;0.14;79.75
75627;BME280;67372;49.404;11.034;2023-02-15T08:30:34;99528.94;;;0.25;79.49
75627;BME280;67372;49.404;11.034;2023-02-15T08:33:02;99529.28;;;0.32;78.63
75627;BME280;67372;49.404;11.034;2023-02-15T08:35:28;99520.09;;;0.37;78.70
75627;BME280;67372;49.404;11.034;2023-02-15T08:37:55;99519.25;;;0.37;78.63
75627;BME280;67372;49.404;11.034;2023-02-15T08:40:21;99519.97;;;0.39;78.25
75627;BME280;67372;49.404;11.034;2023-02-15T08:42:47;99517.59;;;0.36;78.91
75627;BME280;67372;49.404;11.034;2023-02-15T08:45:14;99526.53;;;0.33;78.44
75627;BME280;67372;49.404;11.034;2023-02-15T08:47:40;99528.44;;;0.42;78.61
75627;BME280;67372;49.404;11.034;2023-02-15T08:50:06;99534.28;;;0.57;78.23
75627;BME280;67372;49.404;11.034;2023-02-15T08:52:33;99532.97;;;0.63;77.91
75627;BME280;67372;49.404;11.034;2023-02-15T08:54:59;99537.63;;;0.70;77.60
75627;BME280;67372;49.404;11.034;2023-02-15T08:57:26;99538.00;;;0.77;77.30
75627;BME280;67372;49.404;11.034;2023-02-15T08:59:53;99528.91;;;0.81;76.98
75627;BME280;67372;49.404;11.034;2023-02-15T09:02:19;99536.06;;;0.79;76.30
75627;BME280;67372;49.404;11.034;2023-02-15T09:04:46;99542.75;;;0.83;77.43
75627;BME280;67372;49.404;11.034;2023-02-15T09:07:12;99542.13;;;0.90;77.04
75627;BME280;67372;49.404;11.034;2023-02-15T09:09:38;99529.63;;;0.83;76.84
75627;BME280;67372;49.404;11.034;2023-02-15T09:12:05;99530.34;;;0.74;76.93
75627;BME280;67372;49.404;11.034;2023-02-15T09:14:31;99532.50;;;0.80;76.93
75627;BME280;67372;49.404;11.034;2023-02-15T09:16:58;99532.13;;;0.84;76.38
75627;BME280;67372;49.404;11.034;2023-02-15T09:19:25;99525.69;;;0.77;77.02
75627;BME280;67372;49.404;11.034;2023-02-15T09:21:51;99529.03;;;0.68;77.36
75627;BME280;67372;49.404;11.034;2023-02-15T09:24:18;99524.72;;;0.78;77.21
75627;BME280;67372;49.404;11.034;2023-02-15T09:26:46;99523.88;;;0.89;77.18
75627;BME280;67372;49.404;11.034;2023-02-15T09:29:14;99530.53;;;0.93;76.48
75627;BME280;67372;49.404;11.034;2023-02-15T09:31:48;99524.13;;;0.97;76.60
75627;BME280;67372;49.404;11.034;2023-02-15T09:34:17;99523.63;;;1.03;76.08
75627;BME280;67372;49.404;11.034;2023-02-15T09:36:44;99521.06;;;1.13;76.33
75627;BME280;67372;49.404;11.034;2023-02-15T09:39:12;99531.81;;;1.21;76.10
75627;BME280;67372;49.404;11.034;2023-02-15T09:52:50;99534.84;;;1.69;74.91
75627;BME280;67372;49.404;11.034;2023-02-15T10:09:19;99551.69;;;1.99;73.58
75627;BME280;67372;49.404;11.034;2023-02-15T10:12:01;99542.25;;;1.96;73.05
75627;BME280;67372;49.404;11.034;2023-02-15T10:14:42;99541.34;;;2.07;73.14
75627;BME280;67372;49.404;11.034;2023-02-15T10:19:58;99531.50;;;2.30;71.80
75627;BME280;67372;49.404;11.034;2023-02-15T10:23:00;99521.66;;;2.32;72.47
75627;BME280;67372;49.404;11.034;2023-02-15T10:25:55;99525.06;;;2.43;71.90
75627;BME280;67372;49.404;11.034;2023-02-15T10:28:27;99517.44;;;2.50;72.77
75627;BME280;67372;49.404;11.034;2023-02-15T10:33:43;99504.41;;;2.39;71.47
75627;BME280;67372;49.404;11.034;2023-02-15T10:41:37;99495.72;;;2.58;71.98
75627;BME280;67372;49.404;11.034;2023-02-15T10:53:04;99477.94;;;2.90;70.84
75627;BME280;67372;49.404;11.034;2023-02-15T11:06:17;99453.09;;;2.93;71.16
75627;BME280;67372;49.404;11.034;2023-02-15T11:08:50;99449.63;;;3.02;70.16
75627;BME280;67372;49.404;11.034;2023-02-15T11:13:56;99445.94;;;3.33;69.81
75627;BME280;67372;49.404;11.034;2023-02-15T11:16:31;99448.38;;;3.54;70.22
75627;BME280;67372;49.404;11.034;2023-02-15T11:19:03;99450.47;;;3.51;69.31
75627;BME280;67372;49.404;11.034;2023-02-15T11:21:37;99453.53;;;3.65;69.76
75627;BME280;67372;49.404;11.034;2023-02-15T11:24:13;99447.13;;;3.68;69.21
75627;BME280;67372;49.404;11.034;2023-02-15T11:26:46;99451.72;;;3.66;69.36
75627;BME280;67372;49.404;11.034;2023-02-15T11:29:23;99459.59;;;3.76;69.81
75627;BME280;67372;49.404;11.034;2023-02-15T11:31:58;99450.72;;;3.77;69.03
75627;BME280;67372;49.404;11.034;2023-02-15T11:34:33;99455.25;;;3.94;68.07
75627;BME280;67372;49.404;11.034;2023-02-15T11:37:05;99444.13;;;4.10;69.66
75627;BME280;67372;49.404;11.034;2023-02-15T11:39:34;99437.31;;;3.97;67.87
75627;BME280;67372;49.404;11.034;2023-02-15T11:42:12;99429.69;;;3.94;67.70
75627;BME280;67372;49.404;11.034;2023-02-15T11:44:54;99425.25;;;3.95;68.09
75627;BME280;67372;49.404;11.034;2023-02-15T11:47:22;99421.63;;;4.06;68.92
75627;BME280;67372;49.404;11.034;2023-02-15T11:49:48;99417.72;;;4.10;68.57
75627;BME280;67372;49.404;11.034;2023-02-15T11:52:16;99422.56;;;4.14;68.08
75627;BME280;67372;49.404;11.034;2023-02-15T11:54:47;99414.88;;;4.21;68.40
75627;BME280;67372;49.404;11.034;2023-02-15T11:59:55;99421.66;;;4.23;67.56
75627;BME280;67372;49.404;11.034;2023-02-15T12:02:22;99426.72;;;4.44;68.93
75627;BME280;67372;49.404;11.034;2023-02-15T12:05:13;99423.84;;;4.38;65.80
75627;BME280;67372;49.404;11.034;2023-02-15T12:07:44;99414.84;;;4.30;66.09
75627;BME280;67372;49.404;11.034;2023-02-15T12:10:19;99414.84;;;4.30;68.29
75627;BME280;67372;49.404;11.034;2023-02-15T12:12:46;99407.25;;;4.45;68.83
75627;BME280;67372;49.404;11.034;2023-02-15T12:15:13;99401.31;;;4.61;66.17
75627;BME280;67372;49.404;11.034;2023-02-15T12:17:47;99383.69;;;4.79;68.07
75627;BME280;67372;49.404;11.034;2023-02-15T12:22:53;99379.00;;;4.73;65.77
75627;BME280;67372;49.404;11.034;2023-02-15T12:25:23;99381.25;;;4.68;67.13
75627;BME280;67372;49.404;11.034;2023-02-15T12:27:51;99380.44;;;4.85;67.07
75627;BME280;67372;49.404;11.034;2023-02-15T12:30:25;99374.00;;;4.88;66.33
75627;BME280;67372;49.404;11.034;2023-02-15T12:35:32;99360.94;;;4.86;66.73
75627;BME280;67372;49.404;11.034;2023-02-15T12:38:03;99355.34;;;4.89;66.48
75627;BME280;67372;49.404;11.034;2023-02-15T12:40:32;99354.81;;;4.68;66.60
75627;BME280;67372;49.404;11.034;2023-02-15T12:42:59;99356.56;;;4.59;66.54
75627;BME280;67372;49.404;11.034;2023-02-15T12:45:31;99356.75;;;4.48;66.58
75627;BME280;67372;49.404;11.034;2023-02-15T12:50:40;99359.38;;;4.48;67.62
75627;BME280;67372;49.404;11.034;2023-02-15T12:53:23;99354.81;;;4.50;67.92
75627;BME280;67372;49.404;11.034;2023-02-15T12:55:57;99350.59;;;4.57;68.23
75627;BME280;67372;49.404;11.034;2023-02-15T12:58:29;99333.91;;;4.57;67.42
75627;BME280;67372;49.404;11.034;2023-02-15T13:01:18;99329.97;;;4.61;67.39
75627;BME280;67372;49.404;11.034;2023-02-15T13:04:03;99330.19;;;4.68;67.84
75627;BME280;67372;49.404;11.034;2023-02-15T13:06:32;99322.94;;;4.70;67.17
75627;BME280;67372;49.404;11.034;2023-02-15T13:09:35;99331.13;;;4.76;67.28
75627;BME280;67372;49.404;11.034;2023-02-15T13:12:24;99335.19;;;4.88;67.24
75627;BME280;67372;49.404;11.034;2023-02-15T13:14:52;99331.50;;;4.99;67.58
75627;BME280;67372;49.404;11.034;2023-02-15T13:17:24;99327.59;;;5.11;67.08
75627;BME280;67372;49.404;11.034;2023-02-15T13:19:52;99326.41;;;5.23;67.26
75627;BME280;67372;49.404;11.034;2023-02-15T13:22:22;99324.00;;;5.38;66.78
75627;BME280;67372;49.404;11.034;2023-02-15T13:24:53;99317.41;;;5.42;65.54
75627;BME280;67372;49.404;11.034;2023-02-15T13:27:24;99318.63;;;5.48;66.08
75627;BME280;67372;49.404;11.034;2023-02-15T13:29:56;99313.69;;;5.53;66.02
75627;BME280;67372;49.404;11.034;2023-02-15T13:32:36;99307.56;;;5.52;64.84
75627;BME280;67372;49.404;11.034;2023-02-15T13:35:05;99309.03;;;5.47;65.40
75627;BME280;67372;49.404;11.034;2023-02-15T13:40:28;99301.22;;;5.19;65.37
75627;BME280;67372;49.404;11.034;2023-02-15T13:46:10;99309.84;;;5.21;65.58
75627;BME280;67372;49.404;11.034;2023-02-15T13:48:55;99309.69;;;5.23;66.56
75627;BME280;67372;49.404;11.034;2023-02-15T13:51:43;99310.94;;;5.37;65.92
75627;BME280;67372;49.404;11.034;2023-02-15T13:54:53;99313.94;;;5.42;65.51
75627;BME280;67372;49.404;11.034;2023-02-15T14:00:36;99314.84;;;5.50;65.55
75627;BME280;67372;49.404;11.034;2023-02-15T14:03:25;99316.69;;;5.58;65.71
75627;BME280;67372;49.404;11.034;2023-02-15T14:11:44;99312.94;;;5.43;65.69
75627;BME280;67372;49.404;11.034;2023-02-15T14:14:28;99309.69;;;5.49;65.62
75627;BME280;67372;49.404;11.034;2023-02-15T14:20:01;99305.28;;;5.58;65.55
75627;BME280;67372;49.404;11.034;2023-02-15T14:22:42;99300.31;;;5.63;65.58
75627;BME280;67372;49.404;11.034;2023-02-15T14:25:18;99299.19;;;5.65;65.65
75627;BME280;67372;49.404;11.034;2023-02-15T14:30:37;99305.03;;;5.77;65.57
75627;BME280;67372;49.404;11.034;2023-02-15T14:35:48;99306.22;;;5.82;64.47
75627;BME280;67372;49.404;11.034;2023-02-15T14:41:16;99304.31;;;5.93;65.29
75627;BME280;67372;49.404;11.034;2023-02-15T14:48:54;99289.78;;;5.97;65.69
75627;BME280;67372;49.404;11.034;2023-02-15T14:54:10;99291.31;;;5.81;65.40
75627;BME280;67372;49.404;11.034;2023-02-15T15:04:45;99281.63;;;5.64;65.90
75627;BME280;67372;49.404;11.034;2023-02-15T15:07:22;99283.59;;;5.54;65.51
75627;BME280;67372;49.404;11.034;2023-02-15T15:12:40;99280.28;;;5.52;66.17
75627;BME280;67372;49.404;11.034;2023-02-15T15:15:11;99274.31;;;5.50;66.69
75627;BME280;67372;49.404;11.034;2023-02-15T15:22:39;99277.03;;;5.40;66.82
75627;BME280;67372;49.404;11.034;2023-02-15T15:27:42;99279.28;;;5.27;66.54
75627;BME280;67372;49.404;11.034;2023-02-15T15:38:41;99269.06;;;5.06;67.82
75627;BME280;67372;49.404;11.034;2023-02-15T15:41:41;99273.69;;;5.04;68.55
75627;BME280;67372;49.404;11.034;2023-02-15T15:44:40;99271.94;;;4.95;68.06